X  Sluiten METAR luchtvaart weer gegevens      EHLW Leeuwarden Air Base
Temperatuur
8°C Temperatuur
6°C Dauwpunt
87% Vochtigheid



Wind
34 KM/U
21 MPH
9 M/S
18 KTS



240°
WZW
Huidig weer

Veel verspreide wolken Veel verspreide wolken
Luchtdruk 1022.92 (hPa) - 30.21 (inHg)
Zicht 6.2 (mijl) - 10 (km)
Vliegveld
Vliegveld code EHLW

Locatie : Leeuwarden Air Base
Afstand: 30 (km)

Metar:
EHLW 290108Z AUTO 24018KT 9999 SCT009 BKN010 OVC013 08/06 Q1023 GRN

Tijd: 29-01-2022 02:08 CET